Angoon, Alaska
Current Conditions -  °F | °C
As of 6:56 AM on Tuesday 21 Oct 2014 (Local Time) from PAGN Reporting Station
Few Clouds Few Clouds  
Wind Chill:   Ceiling: Unl
Heat Index:   Visibility: 10mi
Dew Point:   Wind: 10mph
Humidity: 86%   Direction: 50°NE
Pressure: 29.24"   Gusts: 18mph
Location:  57.5°N, 134.59°W
Report Text: PAGN 211456Z AUTO 05009G16KT 10SM FEW060 07/05 A2924 RMK AO2 TSNO 58031 60000 T00720050 SLP903 $
Loading
Personal Weather Stations






























Interactive Weather Map
Tropical Storm Tracking
New forecast layout! Learn more

10-Day Weather Forecast

Advertisements
Track Severe Weather on mobile